Time;durP1;ratioP1;P1;durP2;ratioP2;P2;SDS_P1;SDS_P2;PMS_P1;PMS_P2;Temp;Humidity;BMP_temperature;BMP_pressure;BME280_temperature;BME280_humidity;BME280_pressure;Samples;Min_cycle;Max_cycle;Signal;HPM_P1;HPM_P2
2022/08/14 00:00:58;;;;;;;3.73;1.73;;;18.50;99.20;;;;;;21072681;28;20068;-76
2022/08/14 00:10:59;;;;;;;1.80;1.37;;;18.10;99.90;;;;;;21072654;28;20079;-78
2022/08/14 00:21:00;;;;;;;2.00;1.60;;;18.10;99.90;;;;;;21072270;28;20127;-77
2022/08/14 00:31:02;;;;;;;1.90;1.50;;;17.90;99.90;;;;;;21055452;28;20537;-77
2022/08/14 00:41:05;;;;;;;2.20;1.55;;;17.90;99.90;;;;;;21086954;28;20063;-77
2022/08/14 00:51:08;;;;;;;6.70;1.63;;;17.90;99.90;;;;;;21090927;28;20486;-77
2022/08/14 01:01:11;;;;;;;3.05;1.85;;;17.60;99.90;;;;;;21085158;28;20406;-77
2022/08/14 01:11:14;;;;;;;3.95;1.90;;;17.70;99.90;;;;;;21066743;28;20078;-77
2022/08/14 01:21:24;;;;;;;2.00;1.60;;;17.50;99.90;;;;;;21083598;28;20413;-77
2022/08/14 01:31:28;;;;;;;3.65;1.70;;;17.70;99.90;;;;;;21064595;28;20040;-77
2022/08/14 01:41:29;;;;;;;3.40;1.73;;;17.70;99.90;;;;;;21063576;28;20533;-77
2022/08/14 01:51:30;;;;;;;3.17;1.90;;;17.60;99.90;;;;;;20979718;28;20090;-77
2022/08/14 02:01:32;;;;;;;9.57;2.17;;;16.90;99.90;;;;;;20955242;28;20499;-77
2022/08/14 02:11:34;;;;;;;2.55;1.88;;;17.30;99.90;;;;;;20967907;28;20055;-77
2022/08/14 02:21:35;;;;;;;2.63;1.90;;;17.20;99.90;;;;;;20933698;28;20067;-78
2022/08/14 02:31:39;;;;;;;7.28;1.83;;;17.40;99.90;;;;;;20950948;28;20491;-77
2022/08/14 02:41:41;;;;;;;5.45;2.13;;;16.80;99.90;;;;;;20950401;28;20037;-77
2022/08/14 02:51:47;;;;;;;3.47;2.35;;;16.30;99.90;;;;;;20950111;28;20398;-77
2022/08/14 03:01:49;;;;;;;3.20;2.15;;;16.20;99.90;;;;;;20932984;28;20380;-77
2022/08/14 03:11:51;;;;;;;;;;;16.00;99.90;;;;;;20946683;28;20032;-78
2022/08/14 03:21:52;;;;;;;4.10;1.83;;;16.60;99.90;;;;;;20947616;28;19920;-77
2022/08/14 03:31:54;;;;;;;4.35;1.88;;;16.50;99.90;;;;;;20933018;28;20041;-77
2022/08/14 03:41:56;;;;;;;5.78;2.45;;;16.30;99.90;;;;;;20912630;28;20328;-77
2022/08/14 03:51:57;;;;;;;5.10;2.40;;;16.00;99.90;;;;;;20961916;28;20460;-78
2022/08/14 04:01:58;;;;;;;2.88;2.17;;;15.70;99.90;;;;;;20928346;28;20041;-78
2022/08/14 04:11:59;;;;;;;2.60;2.10;;;15.50;99.90;;;;;;20917983;28;20075;-78
2022/08/14 04:22:00;;;;;;;3.37;2.20;;;15.70;99.90;;;;;;20921805;28;20384;-76
2022/08/14 04:32:01;;;;;;;3.20;2.50;;;15.70;99.90;;;;;;20920803;28;20550;-77
2022/08/14 04:52:23;;;;;;;2.92;1.90;;;15.50;99.90;;;;;;20903172;28;20044;-77
2022/08/14 05:02:26;;;;;;;1.83;1.63;;;15.90;99.90;;;;;;20927167;28;20037;-77
2022/08/14 05:12:30;;;;;;;2.53;1.85;;;16.30;99.90;;;;;;20918265;28;20041;-77
2022/08/14 05:22:31;;;;;;;6.60;2.40;;;16.50;99.90;;;;;;20917113;28;20041;-76
2022/08/14 05:32:31;;;;;;;3.50;2.10;;;16.10;99.90;;;;;;20952749;23;20486;-75
2022/08/14 05:42:32;;;;;;;3.37;2.87;;;16.00;99.90;;;;;;20997925;28;20107;-74
2022/08/14 05:52:33;;;;;;;3.73;2.50;;;15.90;99.90;;;;;;20997040;28;20040;-75
2022/08/14 06:02:34;;;;;;;3.93;3.10;;;16.00;99.90;;;;;;20996335;28;20066;-74
2022/08/14 06:12:36;;;;;;;3.50;2.83;;;15.90;99.90;;;;;;20995493;28;20379;-74
2022/08/14 06:22:37;;;;;;;3.92;2.58;;;16.30;99.90;;;;;;20994506;28;20591;-74
2022/08/14 06:32:38;;;;;;;5.47;2.50;;;17.00;99.90;;;;;;20993214;28;20052;-74
2022/08/14 06:42:40;;;;;;;7.40;2.77;;;17.70;99.90;;;;;;20993036;28;20048;-75
2022/08/14 06:52:41;;;;;;;2.90;2.30;;;18.50;99.90;;;;;;20974668;28;20064;-75
2022/08/14 07:13:02;;;;;;;7.28;2.13;;;19.80;99.90;;;;;;20991106;28;20098;-76
2022/08/14 07:23:05;;;;;;;3.87;2.20;;;20.20;99.90;;;;;;20992310;28;20036;-75
2022/08/14 07:33:10;;;;;;;3.10;2.08;;;21.60;99.90;;;;;;20964170;28;20493;-75
2022/08/14 07:43:12;;;;;;;3.22;2.08;;;21.90;99.90;;;;;;20869056;28;20072;-76
2022/08/14 07:53:13;;;;;;;4.82;1.90;;;22.70;99.90;;;;;;20890097;28;20041;-75
2022/08/14 08:03:15;;;;;;;6.07;2.63;;;23.50;99.90;;;;;;20924099;28;20499;-77
2022/08/14 08:13:22;;;;;;;2.80;1.73;;;24.40;99.40;;;;;;20906014;28;20040;-76
2022/08/14 08:23:25;;;;;;;3.30;1.90;;;23.70;99.40;;;;;;20923647;28;20523;-76
2022/08/14 08:33:31;;;;;;;3.25;1.90;;;24.10;99.70;;;;;;20922812;28;20049;-75
2022/08/14 08:43:34;;;;;;;3.30;1.80;;;25.10;98.60;;;;;;20922093;28;20040;-76
2022/08/14 08:53:35;;;;;;;6.90;1.95;;;26.30;97.10;;;;;;20903096;28;20104;-75
2022/08/14 09:03:36;;;;;;;2.33;1.60;;;26.20;97.00;;;;;;20918667;28;20045;-75
2022/08/14 09:13:37;;;;;;;2.95;1.70;;;26.70;96.20;;;;;;20919069;28;20061;-75
2022/08/14 09:23:40;;;;;;;2.40;1.48;;;27.60;94.50;;;;;;20917873;28;20043;-75
2022/08/14 09:34:06;;;;;;;2.47;1.65;;;28.80;93.10;;;;;;20916735;28;20406;-76
2022/08/14 09:44:28;;;;;;;3.13;1.35;;;29.80;91.60;;;;;;20913676;28;20094;-75
2022/08/14 09:54:38;;;;;;;2.33;1.20;;;30.30;90.70;;;;;;20890255;28;20040;-76
2022/08/14 10:04:39;;;;;;;3.57;1.43;;;30.10;89.90;;;;;;20901566;28;20036;-76
2022/08/14 10:14:40;;;;;;;3.60;1.10;;;31.10;88.90;;;;;;20923605;28;20044;-77
2022/08/14 10:24:45;;;;;;;1.83;1.45;;;31.00;89.00;;;;;;20923175;28;20041;-76
2022/08/14 10:34:46;;;;;;;3.40;1.98;;;31.70;86.90;;;;;;20917130;28;20037;-76
2022/08/14 10:44:48;;;;;;;5.22;2.42;;;30.80;87.80;;;;;;20901446;28;20040;-77
2022/08/14 10:54:50;;;;;;;2.97;2.13;;;30.80;90.50;;;;;;20918821;28;20507;-77
2022/08/14 11:05:04;;;;;;;4.07;2.97;;;30.30;91.10;;;;;;20916019;28;20041;-78
2022/08/14 11:15:05;;;;;;;5.03;3.25;;;29.00;93.90;;;;;;20895463;28;20049;-75
2022/08/14 11:25:12;;;;;;;8.25;4.00;;;28.90;96.40;;;;;;20909022;28;20072;-75
2022/08/14 11:35:16;;;;;;;8.88;3.10;;;28.70;96.00;;;;;;21010617;22;20059;-78
2022/08/14 11:45:17;;;;;;;7.70;3.58;;;29.00;95.80;;;;;;20990463;28;20041;-78
2022/08/14 11:55:18;;;;;;;4.75;3.40;;;28.90;95.60;;;;;;20988774;28;20433;-77
2022/08/14 12:05:34;;;;;;;6.85;3.25;;;29.40;95.80;;;;;;20997458;28;20033;-77
2022/08/14 12:15:35;;;;;;;6.53;3.30;;;30.20;95.60;;;;;;20992715;28;20067;-78
2022/08/14 12:25:36;;;;;;;4.30;3.10;;;30.10;95.40;;;;;;20989563;28;20060;-76
2022/08/14 12:35:41;;;;;;;6.13;3.25;;;30.80;95.10;;;;;;21003886;28;20475;-77
2022/08/14 12:45:53;;;;;;;4.63;3.08;;;30.50;95.30;;;;;;21002703;28;20041;-78
2022/08/14 12:56:00;;;;;;;7.03;3.35;;;30.10;94.50;;;;;;21000446;28;20044;-78
2022/08/14 13:06:01;;;;;;;8.25;3.63;;;30.30;95.20;;;;;;20983700;28;20036;-78
2022/08/14 13:16:04;;;;;;;5.88;3.67;;;29.00;96.60;;;;;;21001411;28;20048;-78
2022/08/14 13:26:06;;;;;;;6.40;3.78;;;29.10;97.10;;;;;;21011146;28;20098;-78
2022/08/14 13:36:09;;;;;;;3.63;2.53;;;28.20;97.00;;;;;;20982348;28;20075;-78
2022/08/14 13:46:09;;;;;;;5.25;2.33;;;27.80;93.60;;;;;;20992347;28;20036;-78
2022/08/14 13:56:12;;;;;;;4.55;2.10;;;27.90;92.20;;;;;;21009187;28;20090;-78
2022/08/14 14:06:15;;;;;;;6.63;2.25;;;27.90;91.10;;;;;;20983276;28;20037;-75
2022/08/14 14:16:19;;;;;;;6.18;1.88;;;27.90;91.10;;;;;;20985215;28;20117;-79
2022/08/14 14:26:22;;;;;;;7.97;2.08;;;27.30;91.90;;;;;;20995966;28;20403;-79
2022/08/14 14:36:26;;;;;;;7.18;1.90;;;26.90;92.90;;;;;;20995498;28;20036;-79
2022/08/14 14:46:34;;;;;;;6.82;1.95;;;27.20;92.40;;;;;;21000675;28;20061;-77
2022/08/14 14:56:37;;;;;;;3.72;2.03;;;27.10;93.10;;;;;;20992604;28;20032;-78
2022/08/14 15:06:39;;;;;;;7.32;2.25;;;26.90;92.50;;;;;;20992395;28;20040;-78
2022/08/14 15:16:39;;;;;;;3.92;2.20;;;27.00;93.50;;;;;;20971906;28;20063;-77
2022/08/14 15:26:43;;;;;;;4.82;2.10;;;26.50;94.60;;;;;;20997976;28;20525;-77
2022/08/14 15:36:44;;;;;;;8.95;2.80;;;26.20;95.20;;;;;;20994175;28;20086;-78
2022/08/14 15:46:45;;;;;;;8.48;2.47;;;26.10;95.70;;;;;;20988584;28;20047;-78
2022/08/14 15:57:03;;;;;;;6.88;2.28;;;25.90;96.30;;;;;;20986719;28;20049;-77
2022/08/14 16:07:04;;;;;;;6.93;2.50;;;26.00;96.40;;;;;;20977605;28;20035;-77
2022/08/14 16:17:08;;;;;;;5.72;2.60;;;25.90;96.80;;;;;;20986600;28;20040;-77
2022/08/14 16:27:10;;;;;;;9.10;2.55;;;25.80;97.10;;;;;;20999313;28;20071;-77
2022/08/14 16:37:12;;;;;;;12.88;2.95;;;25.50;97.60;;;;;;20995217;28;20107;-77
2022/08/14 16:47:16;;;;;;;7.53;2.10;;;25.30;98.10;;;;;;20997184;28;20090;-77
2022/08/14 16:57:24;;;;;;;5.85;2.30;;;25.20;98.20;;;;;;21062059;28;20093;-76
2022/08/14 17:07:25;;;;;;;8.45;2.95;;;25.00;98.40;;;;;;20997931;28;20112;-76
2022/08/14 17:17:41;;;;;;;;;;;25.00;98.60;;;;;;21073632;28;20044;-76
2022/08/14 17:27:44;;;;;;;11.30;2.85;;;24.70;99.20;;;;;;21020788;22;19928;-75
2022/08/14 17:37:47;;;;;;;8.63;2.90;;;24.50;99.60;;;;;;20978483;28;20049;-77
2022/08/14 17:47:49;;;;;;;9.52;3.00;;;24.40;99.90;;;;;;20997073;28;20036;-77
2022/08/14 17:57:53;;;;;;;7.63;2.55;;;24.30;99.90;;;;;;20946380;28;20032;-77
2022/08/14 18:07:54;;;;;;;9.00;2.60;;;24.10;99.90;;;;;;20946295;28;20036;-77
2022/08/14 18:17:56;;;;;;;3.85;2.47;;;24.00;99.90;;;;;;20962648;28;20048;-77
2022/08/14 18:27:58;;;;;;;6.68;3.08;;;23.80;99.90;;;;;;20993384;28;20055;-77
2022/08/14 18:38:24;;;;;;;6.95;2.38;;;23.70;99.90;;;;;;21008337;28;20505;-77
2022/08/14 18:48:27;;;;;;;8.40;2.33;;;23.50;99.90;;;;;;20992754;28;20406;-79
2022/08/14 18:58:51;;;;;;;8.80;2.95;;;23.40;99.90;;;;;;21008521;28;20048;-78
2022/08/14 19:08:52;;;;;;;7.88;2.42;;;23.40;99.90;;;;;;20973736;28;20513;-76
2022/08/14 19:18:58;;;;;;;8.30;2.28;;;23.30;99.90;;;;;;20990783;28;20047;-76
2022/08/14 19:29:30;;;;;;;10.93;2.28;;;23.20;99.90;;;;;;21006953;28;20578;-76
2022/08/14 19:39:51;;;;;;;3.95;2.03;;;23.00;99.90;;;;;;20989028;28;20042;-76
2022/08/14 19:49:52;;;;;;;6.22;2.50;;;22.90;99.90;;;;;;20990036;28;20037;-76
2022/08/14 20:00:17;;;;;;;4.90;2.23;;;22.80;99.90;;;;;;20988748;28;20083;-75
2022/08/14 20:10:33;;;;;;;10.95;2.78;;;22.80;99.90;;;;;;20988364;28;20285;-77
2022/08/14 20:20:38;;;;;;;10.88;3.45;;;22.30;99.90;;;;;;20988025;28;20473;-75
2022/08/14 20:30:40;;;;;;;4.60;2.67;;;21.90;99.90;;;;;;20987364;28;20525;-76
2022/08/14 20:40:47;;;;;;;;;;;21.50;99.90;;;;;;20988119;28;20044;-76
2022/08/14 20:50:48;;;;;;;12.98;3.05;;;21.50;99.90;;;;;;20993364;28;20336;-76
2022/08/14 21:00:56;;;;;;;4.30;2.30;;;21.50;99.90;;;;;;21001050;28;20032;-76
2022/08/14 21:10:58;;;;;;;3.58;2.00;;;21.30;99.90;;;;;;21015966;28;20067;-76
2022/08/14 21:21:03;;;;;;;6.80;2.20;;;21.30;99.90;;;;;;20999529;28;20506;-77
2022/08/14 21:31:05;;;;;;;6.50;2.83;;;21.40;99.90;;;;;;20998709;28;20494;-76
2022/08/14 21:41:32;;;;;;;6.85;2.85;;;21.30;99.90;;;;;;20998392;28;20040;-76
2022/08/14 21:51:32;;;;;;;4.38;2.28;;;21.30;99.90;;;;;;20996787;28;20056;-76
2022/08/14 22:01:33;;;;;;;4.68;2.65;;;21.20;99.90;;;;;;20995404;28;20113;-75
2022/08/14 22:11:34;;;;;;;5.97;2.37;;;21.20;99.90;;;;;;20995880;28;20486;-75
2022/08/14 22:21:36;;;;;;;7.65;3.05;;;21.20;99.90;;;;;;20994475;28;20393;-75
2022/08/14 22:31:40;;;;;;;4.97;2.58;;;21.00;99.90;;;;;;20993814;28;20040;-75
2022/08/14 22:41:41;;;;;;;7.70;2.78;;;20.90;99.90;;;;;;20993685;28;20095;-75
2022/08/14 22:51:42;;;;;;;;;;;20.70;99.90;;;;;;20993635;28;20108;-76
2022/08/14 23:01:54;;;;;;;11.05;3.35;;;20.30;99.90;;;;;;20928147;28;19999;-77
2022/08/14 23:11:55;;;;;;;9.80;4.00;;;19.30;99.90;;;;;;20894404;28;20045;-77
2022/08/14 23:21:56;;;;;;;6.70;3.37;;;18.70;99.90;;;;;;20924551;28;20029;-77
2022/08/14 23:31:57;;;;;;;11.47;3.50;;;18.60;99.90;;;;;;21012988;22;20143;-74
2022/08/14 23:42:02;;;;;;;10.73;4.00;;;18.60;99.90;;;;;;21031767;28;20517;-74
2022/08/14 23:52:03;;;;;;;9.60;4.15;;;18.20;99.90;;;;;;21030363;28;20036;-74
